Airfield :
LOGIN :

Register | Disclaimer

   EN    FR    IT 

 










Legend :    VFR   Marginal VFR   IFR   Intensive IFR   Very Intensive IFR
Visi :
Ceiling :
>= 8 km
>= 3000ft
5 to 8 km
1000 to 3000 ft
1500m to 5 km
500 to 1000 ft
800 to 1500m
200 to 500 ft
< 800m
< 200 ft
Symbols :   Thunderstorms  Fog  Heavy snow  Heavy precipitations  Wind > 20 kt
SIGMETs :     Misc.  Thunderstorms  Icing  Turbulence  Mountain Waves  Volcanic Ashes






- Airport Elevation : 20 ft
- IATA code : BJA


DAAE - Soummam - Bejaia

CURRENT METAR :
  • 100500Z 26005KT 230V300 9999 FEW020 FEW023TCU SCT036 12/09 Q1021

EXPIRED METARs :
  • 100400Z 24005KT 210V270 9999 FEW020 FEW023TCU SCT036 13/08 Q1021
  • 100300Z 24007KT 9999 FEW020 FEW023TCU SCT036 13/08 Q1021

TAF TAF DAAE
Valid from the 10 at 06:00 until the 11 at 06:00 UTC


100500Z 1006/1106 26008KT 9999 FEW020 SCT036
TEMPO 1006/1021 5000 -TSRA FEW023CB
BECMG 1007/1009 30014KT
PROB40
TEMPO 1009/1018 30015G30KT 3000 TSGRRA SCT020CB



MET'MAP, your aeronautical weather chart ! - Copyright ORBIFLY December 2007 - Disclaimer

ORBIFLY MET'MAP TEAM :

Programming & Development : Alexandra Zaïnal
Concept & original design : Baudouin d'Aumeries
Assistance for programming : Marc-Olivier Méhu
Technical & hardware support : Manuel Goepfert

Contact : metmap@orbifly.com




SOURCES & CREDITS :

   NOAA